sensor_id;sensor_type;location;lat;lon;timestamp;P1;durP1;ratioP1;P2;durP2;ratioP2
19867;SDS011;10096;51.112;6.776;2023-11-19T00:00:33;6.03;;;2.40;;
19867;SDS011;10096;51.112;6.776;2023-11-19T00:03:00;4.28;;;1.73;;
19867;SDS011;10096;51.112;6.776;2023-11-19T00:05:28;4.07;;;1.90;;
19867;SDS011;10096;51.112;6.776;2023-11-19T00:07:59;3.40;;;1.65;;
19867;SDS011;10096;51.112;6.776;2023-11-19T00:10:28;2.78;;;1.90;;
19867;SDS011;10096;51.112;6.776;2023-11-19T00:12:55;2.40;;;1.98;;
19867;SDS011;10096;51.112;6.776;2023-11-19T00:15:22;3.42;;;2.05;;
19867;SDS011;10096;51.112;6.776;2023-11-19T00:17:52;4.05;;;2.20;;
19867;SDS011;10096;51.112;6.776;2023-11-19T00:20:22;2.90;;;1.70;;
19867;SDS011;10096;51.112;6.776;2023-11-19T00:22:49;1.83;;;1.70;;
19867;SDS011;10096;51.112;6.776;2023-11-19T00:25:17;2.60;;;1.90;;
19867;SDS011;10096;51.112;6.776;2023-11-19T00:27:46;3.08;;;1.85;;
19867;SDS011;10096;51.112;6.776;2023-11-19T00:30:13;2.08;;;1.65;;
19867;SDS011;10096;51.112;6.776;2023-11-19T00:32:52;2.85;;;1.77;;
19867;SDS011;10096;51.112;6.776;2023-11-19T00:35:19;4.93;;;1.92;;
19867;SDS011;10096;51.112;6.776;2023-11-19T00:37:46;2.15;;;1.75;;
19867;SDS011;10096;51.112;6.776;2023-11-19T00:40:14;3.28;;;1.83;;
19867;SDS011;10096;51.112;6.776;2023-11-19T00:42:48;1.60;;;1.50;;
19867;SDS011;10096;51.112;6.776;2023-11-19T00:45:15;3.17;;;1.90;;
19867;SDS011;10096;51.112;6.776;2023-11-19T00:47:42;2.28;;;1.63;;
19867;SDS011;10096;51.112;6.776;2023-11-19T00:50:09;2.83;;;1.50;;
19867;SDS011;10096;51.112;6.776;2023-11-19T00:52:36;1.75;;;1.27;;
19867;SDS011;10096;51.112;6.776;2023-11-19T00:55:03;2.17;;;1.23;;
19867;SDS011;10096;51.112;6.776;2023-11-19T00:57:31;1.50;;;1.20;;
19867;SDS011;10096;51.112;6.776;2023-11-19T01:00:03;1.40;;;1.30;;
19867;SDS011;10096;51.112;6.776;2023-11-19T01:02:34;1.00;;;1.00;;
19867;SDS011;10096;51.112;6.776;2023-11-19T01:05:03;1.10;;;1.00;;
19867;SDS011;10096;51.112;6.776;2023-11-19T01:07:31;1.27;;;1.17;;
19867;SDS011;10096;51.112;6.776;2023-11-19T01:10:02;1.50;;;1.10;;
19867;SDS011;10096;51.112;6.776;2023-11-19T01:12:29;1.92;;;1.50;;
19867;SDS011;10096;51.112;6.776;2023-11-19T01:14:56;3.13;;;1.10;;
19867;SDS011;10096;51.112;6.776;2023-11-19T01:17:25;1.40;;;1.30;;
19867;SDS011;10096;51.112;6.776;2023-11-19T01:19:52;1.27;;;1.17;;
19867;SDS011;10096;51.112;6.776;2023-11-19T01:22:18;1.77;;;1.20;;
19867;SDS011;10096;51.112;6.776;2023-11-19T01:24:46;1.30;;;1.10;;
19867;SDS011;10096;51.112;6.776;2023-11-19T01:27:13;1.67;;;1.10;;
19867;SDS011;10096;51.112;6.776;2023-11-19T01:29:40;1.08;;;1.08;;
19867;SDS011;10096;51.112;6.776;2023-11-19T01:32:08;1.02;;;1.02;;
19867;SDS011;10096;51.112;6.776;2023-11-19T01:34:37;1.33;;;1.23;;
19867;SDS011;10096;51.112;6.776;2023-11-19T01:37:04;1.40;;;1.30;;
19867;SDS011;10096;51.112;6.776;2023-11-19T01:39:34;1.85;;;1.40;;
19867;SDS011;10096;51.112;6.776;2023-11-19T01:42:01;1.92;;;1.10;;
19867;SDS011;10096;51.112;6.776;2023-11-19T01:44:28;1.38;;;1.20;;
19867;SDS011;10096;51.112;6.776;2023-11-19T01:46:55;1.30;;;1.20;;
19867;SDS011;10096;51.112;6.776;2023-11-19T01:49:25;1.80;;;1.30;;
19867;SDS011;10096;51.112;6.776;2023-11-19T01:51:55;4.05;;;1.75;;
19867;SDS011;10096;51.112;6.776;2023-11-19T01:54:24;1.42;;;1.33;;
19867;SDS011;10096;51.112;6.776;2023-11-19T01:56:53;2.08;;;1.90;;
19867;SDS011;10096;51.112;6.776;2023-11-19T01:59:23;1.73;;;1.60;;
19867;SDS011;10096;51.112;6.776;2023-11-19T02:01:52;2.53;;;1.85;;
19867;SDS011;10096;51.112;6.776;2023-11-19T02:04:20;4.93;;;2.58;;
19867;SDS011;10096;51.112;6.776;2023-11-19T02:06:48;6.03;;;2.70;;
19867;SDS011;10096;51.112;6.776;2023-11-19T02:09:20;3.47;;;2.00;;
19867;SDS011;10096;51.112;6.776;2023-11-19T02:11:47;5.22;;;2.60;;
19867;SDS011;10096;51.112;6.776;2023-11-19T02:14:16;4.65;;;2.65;;
19867;SDS011;10096;51.112;6.776;2023-11-19T02:16:45;9.40;;;2.95;;
19867;SDS011;10096;51.112;6.776;2023-11-19T02:19:12;3.95;;;2.55;;
19867;SDS011;10096;51.112;6.776;2023-11-19T02:21:39;4.65;;;2.58;;
19867;SDS011;10096;51.112;6.776;2023-11-19T02:24:07;6.70;;;3.10;;
19867;SDS011;10096;51.112;6.776;2023-11-19T02:26:39;8.85;;;3.22;;
19867;SDS011;10096;51.112;6.776;2023-11-19T02:29:17;6.57;;;3.15;;
19867;SDS011;10096;51.112;6.776;2023-11-19T02:31:46;6.70;;;2.70;;
19867;SDS011;10096;51.112;6.776;2023-11-19T02:34:13;6.85;;;2.83;;
19867;SDS011;10096;51.112;6.776;2023-11-19T02:36:41;6.70;;;2.92;;
19867;SDS011;10096;51.112;6.776;2023-11-19T02:39:08;6.53;;;2.67;;
19867;SDS011;10096;51.112;6.776;2023-11-19T02:41:37;9.30;;;3.33;;
19867;SDS011;10096;51.112;6.776;2023-11-19T02:44:07;7.38;;;3.33;;
19867;SDS011;10096;51.112;6.776;2023-11-19T02:46:40;5.95;;;3.40;;
19867;SDS011;10096;51.112;6.776;2023-11-19T02:49:09;9.00;;;3.03;;
19867;SDS011;10096;51.112;6.776;2023-11-19T02:51:36;6.35;;;2.92;;
19867;SDS011;10096;51.112;6.776;2023-11-19T02:54:03;6.20;;;2.90;;
19867;SDS011;10096;51.112;6.776;2023-11-19T02:56:31;11.23;;;3.67;;
19867;SDS011;10096;51.112;6.776;2023-11-19T02:59:01;7.10;;;3.17;;
19867;SDS011;10096;51.112;6.776;2023-11-19T03:01:41;11.10;;;3.88;;
19867;SDS011;10096;51.112;6.776;2023-11-19T03:04:15;7.90;;;3.35;;
19867;SDS011;10096;51.112;6.776;2023-11-19T03:06:45;9.20;;;3.45;;
19867;SDS011;10096;51.112;6.776;2023-11-19T03:09:12;8.20;;;3.47;;
19867;SDS011;10096;51.112;6.776;2023-11-19T03:11:39;8.85;;;3.00;;
19867;SDS011;10096;51.112;6.776;2023-11-19T03:14:07;9.00;;;3.35;;
19867;SDS011;10096;51.112;6.776;2023-11-19T03:16:34;11.13;;;3.83;;
19867;SDS011;10096;51.112;6.776;2023-11-19T03:19:02;23.50;;;8.63;;
19867;SDS011;10096;51.112;6.776;2023-11-19T03:21:30;8.40;;;3.65;;
19867;SDS011;10096;51.112;6.776;2023-11-19T03:23:57;11.70;;;3.30;;
19867;SDS011;10096;51.112;6.776;2023-11-19T03:26:25;8.13;;;2.95;;
19867;SDS011;10096;51.112;6.776;2023-11-19T03:28:52;8.75;;;3.42;;
19867;SDS011;10096;51.112;6.776;2023-11-19T03:31:19;10.93;;;3.75;;
19867;SDS011;10096;51.112;6.776;2023-11-19T03:33:46;10.43;;;3.25;;
19867;SDS011;10096;51.112;6.776;2023-11-19T03:36:15;7.57;;;2.97;;
19867;SDS011;10096;51.112;6.776;2023-11-19T03:38:42;7.43;;;3.40;;
19867;SDS011;10096;51.112;6.776;2023-11-19T03:41:10;6.63;;;3.42;;
19867;SDS011;10096;51.112;6.776;2023-11-19T03:43:38;9.63;;;3.67;;
19867;SDS011;10096;51.112;6.776;2023-11-19T03:46:15;12.80;;;3.53;;
19867;SDS011;10096;51.112;6.776;2023-11-19T03:48:42;11.55;;;4.32;;
19867;SDS011;10096;51.112;6.776;2023-11-19T03:51:09;10.80;;;3.30;;
19867;SDS011;10096;51.112;6.776;2023-11-19T03:53:41;10.80;;;3.97;;
19867;SDS011;10096;51.112;6.776;2023-11-19T03:56:08;15.00;;;4.07;;
19867;SDS011;10096;51.112;6.776;2023-11-19T03:58:36;12.77;;;3.88;;
19867;SDS011;10096;51.112;6.776;2023-11-19T04:01:04;11.68;;;3.92;;
19867;SDS011;10096;51.112;6.776;2023-11-19T04:03:35;14.25;;;4.55;;
19867;SDS011;10096;51.112;6.776;2023-11-19T04:06:02;11.68;;;3.78;;
19867;SDS011;10096;51.112;6.776;2023-11-19T04:08:31;11.75;;;3.42;;
19867;SDS011;10096;51.112;6.776;2023-11-19T04:10:59;14.90;;;4.22;;
19867;SDS011;10096;51.112;6.776;2023-11-19T04:13:27;13.70;;;4.43;;
19867;SDS011;10096;51.112;6.776;2023-11-19T04:15:54;9.68;;;3.80;;
19867;SDS011;10096;51.112;6.776;2023-11-19T04:18:21;15.13;;;4.13;;
19867;SDS011;10096;51.112;6.776;2023-11-19T04:20:48;14.35;;;4.10;;
19867;SDS011;10096;51.112;6.776;2023-11-19T04:23:16;13.35;;;3.70;;
19867;SDS011;10096;51.112;6.776;2023-11-19T04:25:45;9.98;;;3.85;;
19867;SDS011;10096;51.112;6.776;2023-11-19T04:28:13;13.38;;;4.38;;
19867;SDS011;10096;51.112;6.776;2023-11-19T04:30:45;12.20;;;3.80;;
19867;SDS011;10096;51.112;6.776;2023-11-19T04:33:12;11.20;;;3.95;;
19867;SDS011;10096;51.112;6.776;2023-11-19T04:35:40;13.32;;;4.13;;
19867;SDS011;10096;51.112;6.776;2023-11-19T04:38:07;12.80;;;4.43;;
19867;SDS011;10096;51.112;6.776;2023-11-19T04:40:34;10.60;;;4.15;;
19867;SDS011;10096;51.112;6.776;2023-11-19T04:43:01;13.07;;;4.30;;
19867;SDS011;10096;51.112;6.776;2023-11-19T04:45:37;10.52;;;3.58;;
19867;SDS011;10096;51.112;6.776;2023-11-19T04:48:04;11.65;;;4.50;;
19867;SDS011;10096;51.112;6.776;2023-11-19T04:50:31;13.07;;;3.83;;
19867;SDS011;10096;51.112;6.776;2023-11-19T04:52:58;15.50;;;4.57;;
19867;SDS011;10096;51.112;6.776;2023-11-19T04:55:26;15.10;;;4.22;;
19867;SDS011;10096;51.112;6.776;2023-11-19T04:57:53;13.13;;;3.83;;
19867;SDS011;10096;51.112;6.776;2023-11-19T05:00:20;12.77;;;3.83;;
19867;SDS011;10096;51.112;6.776;2023-11-19T05:02:49;12.73;;;4.47;;
19867;SDS011;10096;51.112;6.776;2023-11-19T05:05:16;14.63;;;4.03;;
19867;SDS011;10096;51.112;6.776;2023-11-19T05:07:43;16.92;;;4.22;;
19867;SDS011;10096;51.112;6.776;2023-11-19T05:10:10;11.07;;;3.90;;
19867;SDS011;10096;51.112;6.776;2023-11-19T05:12:37;13.32;;;3.67;;
19867;SDS011;10096;51.112;6.776;2023-11-19T05:15:05;11.90;;;4.43;;
19867;SDS011;10096;51.112;6.776;2023-11-19T05:17:32;10.77;;;4.43;;
19867;SDS011;10096;51.112;6.776;2023-11-19T05:20:01;13.23;;;3.90;;
19867;SDS011;10096;51.112;6.776;2023-11-19T05:22:28;10.57;;;4.07;;
19867;SDS011;10096;51.112;6.776;2023-11-19T05:24:55;14.77;;;4.60;;
19867;SDS011;10096;51.112;6.776;2023-11-19T05:27:22;12.05;;;4.25;;
19867;SDS011;10096;51.112;6.776;2023-11-19T05:29:49;10.77;;;4.10;;
19867;SDS011;10096;51.112;6.776;2023-11-19T05:32:16;15.75;;;4.45;;
19867;SDS011;10096;51.112;6.776;2023-11-19T05:34:43;18.00;;;4.88;;
19867;SDS011;10096;51.112;6.776;2023-11-19T05:37:12;16.20;;;5.13;;
19867;SDS011;10096;51.112;6.776;2023-11-19T05:39:39;17.15;;;4.30;;
19867;SDS011;10096;51.112;6.776;2023-11-19T05:42:06;15.73;;;4.53;;
19867;SDS011;10096;51.112;6.776;2023-11-19T05:44:34;12.45;;;4.20;;
19867;SDS011;10096;51.112;6.776;2023-11-19T05:47:01;12.20;;;4.60;;
19867;SDS011;10096;51.112;6.776;2023-11-19T05:49:29;14.02;;;4.40;;
19867;SDS011;10096;51.112;6.776;2023-11-19T05:51:58;12.98;;;3.80;;
19867;SDS011;10096;51.112;6.776;2023-11-19T05:54:29;14.32;;;3.78;;
19867;SDS011;10096;51.112;6.776;2023-11-19T05:57:03;15.75;;;4.43;;
19867;SDS011;10096;51.112;6.776;2023-11-19T05:59:34;12.95;;;4.72;;
19867;SDS011;10096;51.112;6.776;2023-11-19T06:02:04;13.73;;;4.45;;
19867;SDS011;10096;51.112;6.776;2023-11-19T06:04:34;14.18;;;4.25;;
19867;SDS011;10096;51.112;6.776;2023-11-19T06:07:01;18.42;;;4.60;;
19867;SDS011;10096;51.112;6.776;2023-11-19T06:09:32;14.52;;;3.97;;
19867;SDS011;10096;51.112;6.776;2023-11-19T06:11:59;15.13;;;4.20;;
19867;SDS011;10096;51.112;6.776;2023-11-19T06:14:27;17.88;;;5.15;;
19867;SDS011;10096;51.112;6.776;2023-11-19T06:16:54;12.38;;;4.65;;
19867;SDS011;10096;51.112;6.776;2023-11-19T06:19:21;14.48;;;5.68;;
19867;SDS011;10096;51.112;6.776;2023-11-19T06:21:49;14.95;;;5.07;;
19867;SDS011;10096;51.112;6.776;2023-11-19T06:24:17;16.65;;;5.55;;
19867;SDS011;10096;51.112;6.776;2023-11-19T06:26:45;17.55;;;6.57;;
19867;SDS011;10096;51.112;6.776;2023-11-19T06:29:13;26.35;;;10.50;;
19867;SDS011;10096;51.112;6.776;2023-11-19T06:31:43;16.98;;;5.38;;
19867;SDS011;10096;51.112;6.776;2023-11-19T06:34:10;13.68;;;4.75;;
19867;SDS011;10096;51.112;6.776;2023-11-19T06:36:37;19.25;;;4.90;;
19867;SDS011;10096;51.112;6.776;2023-11-19T06:39:05;12.15;;;4.93;;
19867;SDS011;10096;51.112;6.776;2023-11-19T06:41:33;14.40;;;5.13;;
19867;SDS011;10096;51.112;6.776;2023-11-19T06:44:05;17.75;;;4.90;;
19867;SDS011;10096;51.112;6.776;2023-11-19T06:46:32;14.30;;;4.88;;
19867;SDS011;10096;51.112;6.776;2023-11-19T06:49:02;15.45;;;4.85;;
19867;SDS011;10096;51.112;6.776;2023-11-19T06:51:30;18.23;;;5.07;;
19867;SDS011;10096;51.112;6.776;2023-11-19T06:53:57;19.73;;;6.03;;
19867;SDS011;10096;51.112;6.776;2023-11-19T06:56:24;15.02;;;4.45;;
19867;SDS011;10096;51.112;6.776;2023-11-19T06:58:52;14.88;;;4.13;;
19867;SDS011;10096;51.112;6.776;2023-11-19T07:01:23;15.15;;;4.80;;
19867;SDS011;10096;51.112;6.776;2023-11-19T07:03:51;19.00;;;5.60;;
19867;SDS011;10096;51.112;6.776;2023-11-19T07:06:18;12.00;;;4.70;;
19867;SDS011;10096;51.112;6.776;2023-11-19T07:08:48;20.05;;;5.00;;
19867;SDS011;10096;51.112;6.776;2023-11-19T07:11:15;14.77;;;4.63;;
19867;SDS011;10096;51.112;6.776;2023-11-19T07:13:45;14.65;;;4.72;;
19867;SDS011;10096;51.112;6.776;2023-11-19T07:16:13;13.00;;;5.25;;
19867;SDS011;10096;51.112;6.776;2023-11-19T07:18:43;17.92;;;5.30;;
19867;SDS011;10096;51.112;6.776;2023-11-19T07:21:15;23.75;;;5.80;;
19867;SDS011;10096;51.112;6.776;2023-11-19T07:23:42;17.98;;;4.75;;
19867;SDS011;10096;51.112;6.776;2023-11-19T07:26:10;19.13;;;5.43;;
19867;SDS011;10096;51.112;6.776;2023-11-19T07:28:37;16.40;;;5.25;;
19867;SDS011;10096;51.112;6.776;2023-11-19T07:31:10;21.55;;;5.22;;
19867;SDS011;10096;51.112;6.776;2023-11-19T07:33:40;18.05;;;4.78;;
19867;SDS011;10096;51.112;6.776;2023-11-19T07:36:10;14.35;;;5.40;;
19867;SDS011;10096;51.112;6.776;2023-11-19T07:38:37;19.25;;;6.05;;
19867;SDS011;10096;51.112;6.776;2023-11-19T07:41:04;18.80;;;5.50;;
19867;SDS011;10096;51.112;6.776;2023-11-19T07:43:34;13.35;;;5.35;;
19867;SDS011;10096;51.112;6.776;2023-11-19T07:46:01;15.30;;;5.50;;
19867;SDS011;10096;51.112;6.776;2023-11-19T07:48:29;14.88;;;5.20;;
19867;SDS011;10096;51.112;6.776;2023-11-19T07:50:56;23.00;;;7.50;;
19867;SDS011;10096;51.112;6.776;2023-11-19T07:53:28;16.40;;;4.78;;
19867;SDS011;10096;51.112;6.776;2023-11-19T07:55:55;17.85;;;4.53;;
19867;SDS011;10096;51.112;6.776;2023-11-19T07:58:26;19.08;;;5.55;;
19867;SDS011;10096;51.112;6.776;2023-11-19T08:00:53;15.27;;;5.13;;
19867;SDS011;10096;51.112;6.776;2023-11-19T08:03:20;16.38;;;4.82;;
19867;SDS011;10096;51.112;6.776;2023-11-19T08:05:50;18.52;;;5.22;;
19867;SDS011;10096;51.112;6.776;2023-11-19T08:08:21;16.33;;;4.57;;
19867;SDS011;10096;51.112;6.776;2023-11-19T08:10:49;19.58;;;5.05;;
19867;SDS011;10096;51.112;6.776;2023-11-19T08:13:18;17.63;;;4.97;;
19867;SDS011;10096;51.112;6.776;2023-11-19T08:15:45;18.83;;;5.82;;
19867;SDS011;10096;51.112;6.776;2023-11-19T08:18:12;17.45;;;6.45;;
19867;SDS011;10096;51.112;6.776;2023-11-19T08:20:40;16.83;;;5.60;;
19867;SDS011;10096;51.112;6.776;2023-11-19T08:23:11;16.92;;;4.72;;
19867;SDS011;10096;51.112;6.776;2023-11-19T08:25:38;15.70;;;4.50;;
19867;SDS011;10096;51.112;6.776;2023-11-19T08:28:06;19.15;;;5.30;;
19867;SDS011;10096;51.112;6.776;2023-11-19T08:30:33;15.50;;;4.88;;
19867;SDS011;10096;51.112;6.776;2023-11-19T08:33:00;15.80;;;5.03;;
19867;SDS011;10096;51.112;6.776;2023-11-19T08:35:28;16.65;;;6.03;;
19867;SDS011;10096;51.112;6.776;2023-11-19T08:37:55;15.80;;;5.55;;
19867;SDS011;10096;51.112;6.776;2023-11-19T08:40:24;19.50;;;5.13;;
19867;SDS011;10096;51.112;6.776;2023-11-19T08:42:51;10.85;;;4.18;;
19867;SDS011;10096;51.112;6.776;2023-11-19T08:45:20;16.83;;;5.88;;
19867;SDS011;10096;51.112;6.776;2023-11-19T08:47:47;17.02;;;4.93;;
19867;SDS011;10096;51.112;6.776;2023-11-19T08:50:14;16.60;;;4.88;;
19867;SDS011;10096;51.112;6.776;2023-11-19T08:52:45;18.73;;;5.25;;
19867;SDS011;10096;51.112;6.776;2023-11-19T08:55:15;17.35;;;5.25;;
19867;SDS011;10096;51.112;6.776;2023-11-19T08:57:42;19.45;;;5.07;;
19867;SDS011;10096;51.112;6.776;2023-11-19T09:00:13;15.38;;;5.88;;
19867;SDS011;10096;51.112;6.776;2023-11-19T09:02:42;16.35;;;5.40;;
19867;SDS011;10096;51.112;6.776;2023-11-19T09:05:09;14.65;;;5.80;;
19867;SDS011;10096;51.112;6.776;2023-11-19T09:07:36;14.68;;;5.43;;
19867;SDS011;10096;51.112;6.776;2023-11-19T09:10:03;17.13;;;5.10;;
19867;SDS011;10096;51.112;6.776;2023-11-19T09:12:33;18.17;;;5.50;;
19867;SDS011;10096;51.112;6.776;2023-11-19T09:15:01;17.70;;;6.05;;
19867;SDS011;10096;51.112;6.776;2023-11-19T09:17:29;16.95;;;6.10;;
19867;SDS011;10096;51.112;6.776;2023-11-19T09:19:57;12.80;;;5.00;;
19867;SDS011;10096;51.112;6.776;2023-11-19T09:22:24;16.75;;;5.82;;
19867;SDS011;10096;51.112;6.776;2023-11-19T09:24:51;21.50;;;5.63;;
19867;SDS011;10096;51.112;6.776;2023-11-19T09:27:18;17.40;;;5.43;;
19867;SDS011;10096;51.112;6.776;2023-11-19T09:29:45;14.25;;;5.55;;
19867;SDS011;10096;51.112;6.776;2023-11-19T09:32:14;18.75;;;5.20;;
19867;SDS011;10096;51.112;6.776;2023-11-19T09:34:41;20.08;;;5.65;;
19867;SDS011;10096;51.112;6.776;2023-11-19T09:37:09;17.60;;;5.43;;
19867;SDS011;10096;51.112;6.776;2023-11-19T09:39:36;16.08;;;5.25;;
19867;SDS011;10096;51.112;6.776;2023-11-19T09:42:03;18.55;;;5.15;;
19867;SDS011;10096;51.112;6.776;2023-11-19T09:44:31;16.15;;;5.97;;
19867;SDS011;10096;51.112;6.776;2023-11-19T09:47:00;22.55;;;6.47;;
19867;SDS011;10096;51.112;6.776;2023-11-19T09:49:27;20.25;;;6.15;;
19867;SDS011;10096;51.112;6.776;2023-11-19T09:51:56;16.65;;;5.55;;
19867;SDS011;10096;51.112;6.776;2023-11-19T09:54:25;17.30;;;5.40;;
19867;SDS011;10096;51.112;6.776;2023-11-19T09:56:52;21.20;;;5.70;;
19867;SDS011;10096;51.112;6.776;2023-11-19T09:59:24;16.33;;;5.78;;
19867;SDS011;10096;51.112;6.776;2023-11-19T10:01:55;18.42;;;5.70;;
19867;SDS011;10096;51.112;6.776;2023-11-19T10:04:23;19.38;;;5.90;;
19867;SDS011;10096;51.112;6.776;2023-11-19T10:06:54;17.10;;;5.53;;
19867;SDS011;10096;51.112;6.776;2023-11-19T10:09:22;14.95;;;5.47;;
19867;SDS011;10096;51.112;6.776;2023-11-19T10:11:53;13.55;;;4.85;;
19867;SDS011;10096;51.112;6.776;2023-11-19T10:14:21;18.73;;;5.78;;
19867;SDS011;10096;51.112;6.776;2023-11-19T10:16:49;21.00;;;5.85;;
19867;SDS011;10096;51.112;6.776;2023-11-19T10:19:18;14.68;;;4.93;;
19867;SDS011;10096;51.112;6.776;2023-11-19T10:21:47;19.77;;;5.07;;
19867;SDS011;10096;51.112;6.776;2023-11-19T10:24:14;14.75;;;5.45;;
19867;SDS011;10096;51.112;6.776;2023-11-19T10:26:41;18.80;;;5.85;;
19867;SDS011;10096;51.112;6.776;2023-11-19T10:29:09;15.70;;;4.75;;
19867;SDS011;10096;51.112;6.776;2023-11-19T10:31:39;15.30;;;5.18;;
19867;SDS011;10096;51.112;6.776;2023-11-19T10:34:10;17.17;;;5.70;;
19867;SDS011;10096;51.112;6.776;2023-11-19T10:36:55;17.52;;;5.40;;
19867;SDS011;10096;51.112;6.776;2023-11-19T10:39:37;16.25;;;4.72;;
19867;SDS011;10096;51.112;6.776;2023-11-19T10:42:19;18.60;;;5.55;;
19867;SDS011;10096;51.112;6.776;2023-11-19T10:44:50;16.52;;;5.15;;
19867;SDS011;10096;51.112;6.776;2023-11-19T10:47:18;13.98;;;5.53;;
19867;SDS011;10096;51.112;6.776;2023-11-19T10:49:47;16.45;;;5.35;;
19867;SDS011;10096;51.112;6.776;2023-11-19T10:52:17;16.25;;;5.53;;
19867;SDS011;10096;51.112;6.776;2023-11-19T10:54:49;17.80;;;5.72;;
19867;SDS011;10096;51.112;6.776;2023-11-19T10:57:19;13.13;;;5.00;;
19867;SDS011;10096;51.112;6.776;2023-11-19T10:59:50;16.60;;;6.18;;
19867;SDS011;10096;51.112;6.776;2023-11-19T11:02:21;19.60;;;6.28;;
19867;SDS011;10096;51.112;6.776;2023-11-19T11:04:53;19.77;;;5.57;;
19867;SDS011;10096;51.112;6.776;2023-11-19T11:07:21;14.63;;;5.47;;
19867;SDS011;10096;51.112;6.776;2023-11-19T11:09:51;15.73;;;5.25;;
19867;SDS011;10096;51.112;6.776;2023-11-19T11:12:18;15.25;;;5.90;;
19867;SDS011;10096;51.112;6.776;2023-11-19T11:14:51;14.25;;;4.97;;
19867;SDS011;10096;51.112;6.776;2023-11-19T11:17:24;11.10;;;4.68;;
19867;SDS011;10096;51.112;6.776;2023-11-19T11:19:53;17.20;;;5.25;;
19867;SDS011;10096;51.112;6.776;2023-11-19T11:22:20;14.75;;;4.85;;
19867;SDS011;10096;51.112;6.776;2023-11-19T11:25:00;16.33;;;5.25;;
19867;SDS011;10096;51.112;6.776;2023-11-19T11:30:39;17.80;;;5.28;;
19867;SDS011;10096;51.112;6.776;2023-11-19T11:33:21;12.95;;;5.63;;
19867;SDS011;10096;51.112;6.776;2023-11-19T11:36:02;15.63;;;4.85;;
19867;SDS011;10096;51.112;6.776;2023-11-19T11:38:39;19.15;;;4.97;;
19867;SDS011;10096;51.112;6.776;2023-11-19T11:41:17;13.77;;;5.38;;
19867;SDS011;10096;51.112;6.776;2023-11-19T11:43:46;16.58;;;5.13;;
19867;SDS011;10096;51.112;6.776;2023-11-19T11:49:24;13.80;;;4.60;;
19867;SDS011;10096;51.112;6.776;2023-11-19T11:52:02;14.30;;;4.43;;
19867;SDS011;10096;51.112;6.776;2023-11-19T11:54:30;14.15;;;4.38;;
19867;SDS011;10096;51.112;6.776;2023-11-19T11:57:01;11.88;;;4.53;;
19867;SDS011;10096;51.112;6.776;2023-11-19T12:02:20;15.50;;;4.53;;
19867;SDS011;10096;51.112;6.776;2023-11-19T12:04:50;15.65;;;4.60;;
19867;SDS011;10096;51.112;6.776;2023-11-19T12:07:18;14.27;;;4.30;;
19867;SDS011;10096;51.112;6.776;2023-11-19T12:09:48;11.18;;;4.60;;
19867;SDS011;10096;51.112;6.776;2023-11-19T12:12:19;10.88;;;4.07;;
19867;SDS011;10096;51.112;6.776;2023-11-19T12:15:00;11.65;;;4.05;;
19867;SDS011;10096;51.112;6.776;2023-11-19T12:17:38;18.63;;;5.20;;
19867;SDS011;10096;51.112;6.776;2023-11-19T12:20:11;10.50;;;4.68;;
19867;SDS011;10096;51.112;6.776;2023-11-19T12:22:39;13.95;;;4.50;;
19867;SDS011;10096;51.112;6.776;2023-11-19T12:25:08;12.30;;;4.93;;
19867;SDS011;10096;51.112;6.776;2023-11-19T12:27:37;11.63;;;4.10;;
19867;SDS011;10096;51.112;6.776;2023-11-19T12:30:05;11.05;;;5.43;;
19867;SDS011;10096;51.112;6.776;2023-11-19T12:32:40;11.70;;;4.57;;
19867;SDS011;10096;51.112;6.776;2023-11-19T12:35:08;17.02;;;5.43;;
19867;SDS011;10096;51.112;6.776;2023-11-19T12:37:43;12.93;;;4.90;;
19867;SDS011;10096;51.112;6.776;2023-11-19T12:40:15;15.63;;;5.30;;
19867;SDS011;10096;51.112;6.776;2023-11-19T12:42:44;14.18;;;4.90;;
19867;SDS011;10096;51.112;6.776;2023-11-19T12:45:12;14.80;;;5.70;;
19867;SDS011;10096;51.112;6.776;2023-11-19T12:47:39;15.63;;;4.78;;
19867;SDS011;10096;51.112;6.776;2023-11-19T12:50:06;16.25;;;5.03;;
19867;SDS011;10096;51.112;6.776;2023-11-19T12:52:36;11.65;;;4.90;;
19867;SDS011;10096;51.112;6.776;2023-11-19T12:55:03;15.88;;;4.65;;
19867;SDS011;10096;51.112;6.776;2023-11-19T12:57:36;14.60;;;5.10;;
19867;SDS011;10096;51.112;6.776;2023-11-19T13:00:05;14.45;;;4.55;;
19867;SDS011;10096;51.112;6.776;2023-11-19T13:02:46;13.32;;;4.93;;
19867;SDS011;10096;51.112;6.776;2023-11-19T13:05:20;12.57;;;4.47;;
19867;SDS011;10096;51.112;6.776;2023-11-19T13:08:01;10.25;;;4.43;;
19867;SDS011;10096;51.112;6.776;2023-11-19T13:10:29;13.35;;;4.82;;
19867;SDS011;10096;51.112;6.776;2023-11-19T13:13:03;11.25;;;4.38;;
19867;SDS011;10096;51.112;6.776;2023-11-19T13:15:35;11.85;;;4.35;;
19867;SDS011;10096;51.112;6.776;2023-11-19T13:18:03;10.20;;;4.25;;
19867;SDS011;10096;51.112;6.776;2023-11-19T13:20:32;11.07;;;3.92;;
19867;SDS011;10096;51.112;6.776;2023-11-19T13:23:01;10.85;;;4.55;;
19867;SDS011;10096;51.112;6.776;2023-11-19T13:25:29;11.05;;;4.20;;
19867;SDS011;10096;51.112;6.776;2023-11-19T13:27:57;14.65;;;4.60;;
19867;SDS011;10096;51.112;6.776;2023-11-19T13:30:25;12.88;;;3.85;;
19867;SDS011;10096;51.112;6.776;2023-11-19T13:32:52;11.50;;;4.43;;
19867;SDS011;10096;51.112;6.776;2023-11-19T13:35:20;15.95;;;4.70;;
19867;SDS011;10096;51.112;6.776;2023-11-19T13:37:47;13.63;;;4.35;;
19867;SDS011;10096;51.112;6.776;2023-11-19T13:40:16;19.15;;;5.20;;
19867;SDS011;10096;51.112;6.776;2023-11-19T13:42:44;13.90;;;5.30;;
19867;SDS011;10096;51.112;6.776;2023-11-19T13:45:13;16.13;;;5.43;;
19867;SDS011;10096;51.112;6.776;2023-11-19T13:47:43;10.30;;;4.47;;
19867;SDS011;10096;51.112;6.776;2023-11-19T13:50:14;12.00;;;4.75;;
19867;SDS011;10096;51.112;6.776;2023-11-19T13:52:43;14.07;;;5.22;;
19867;SDS011;10096;51.112;6.776;2023-11-19T13:55:13;17.35;;;4.88;;
19867;SDS011;10096;51.112;6.776;2023-11-19T13:57:44;14.73;;;5.35;;
19867;SDS011;10096;51.112;6.776;2023-11-19T14:00:12;11.40;;;4.65;;
19867;SDS011;10096;51.112;6.776;2023-11-19T14:02:41;14.35;;;4.57;;
19867;SDS011;10096;51.112;6.776;2023-11-19T14:05:08;16.63;;;5.65;;
19867;SDS011;10096;51.112;6.776;2023-11-19T14:07:36;11.75;;;4.13;;
19867;SDS011;10096;51.112;6.776;2023-11-19T14:10:03;15.45;;;4.80;;
19867;SDS011;10096;51.112;6.776;2023-11-19T14:12:33;15.23;;;5.03;;
19867;SDS011;10096;51.112;6.776;2023-11-19T14:15:03;13.98;;;4.38;;
19867;SDS011;10096;51.112;6.776;2023-11-19T14:17:31;14.68;;;5.25;;
19867;SDS011;10096;51.112;6.776;2023-11-19T14:20:01;16.85;;;4.65;;
19867;SDS011;10096;51.112;6.776;2023-11-19T14:22:29;14.82;;;4.78;;
19867;SDS011;10096;51.112;6.776;2023-11-19T14:24:58;20.90;;;7.93;;
19867;SDS011;10096;51.112;6.776;2023-11-19T14:27:25;12.68;;;4.70;;
19867;SDS011;10096;51.112;6.776;2023-11-19T14:29:54;15.10;;;5.75;;
19867;SDS011;10096;51.112;6.776;2023-11-19T14:32:21;14.25;;;4.63;;
19867;SDS011;10096;51.112;6.776;2023-11-19T14:34:48;13.80;;;4.70;;
19867;SDS011;10096;51.112;6.776;2023-11-19T14:37:15;12.63;;;4.45;;
19867;SDS011;10096;51.112;6.776;2023-11-19T14:39:42;16.85;;;4.93;;
19867;SDS011;10096;51.112;6.776;2023-11-19T14:42:11;15.10;;;5.53;;
19867;SDS011;10096;51.112;6.776;2023-11-19T14:44:39;8.80;;;3.30;;
19867;SDS011;10096;51.112;6.776;2023-11-19T14:47:10;12.32;;;3.85;;
19867;SDS011;10096;51.112;6.776;2023-11-19T14:49:37;10.20;;;3.53;;
19867;SDS011;10096;51.112;6.776;2023-11-19T14:52:04;16.85;;;4.30;;
19867;SDS011;10096;51.112;6.776;2023-11-19T14:54:33;9.15;;;3.55;;
19867;SDS011;10096;51.112;6.776;2023-11-19T14:57:00;10.52;;;4.45;;